Time;durP1;ratioP1;P1;durP2;ratioP2;P2;SDS_P1;SDS_P2;PMS_P1;PMS_P2;Temp;Humidity;BMP_temperature;BMP_pressure;BME280_temperature;BME280_humidity;BME280_pressure;Samples;Min_cycle;Max_cycle;Signal;HPM_P1;HPM_P2
2023/07/14 00:00:24;;;;;;;5.67;5.30;;;16.60;99.90;;;;;;4860918;29;20426;-86
2023/07/14 00:02:52;;;;;;;5.00;4.83;;;16.50;99.90;;;;;;4870654;29;20463;-85
2023/07/14 00:05:26;;;;;;;5.07;4.97;;;16.40;99.90;;;;;;4857906;29;20453;-84
2023/07/14 00:07:52;;;;;;;4.70;4.43;;;16.40;99.90;;;;;;4864082;29;20541;-84
2023/07/14 00:10:30;;;;;;;5.67;5.27;;;16.40;99.90;;;;;;4875999;29;20573;-84
2023/07/14 00:12:56;;;;;;;5.23;5.00;;;16.40;99.90;;;;;;4872236;29;20197;-85
2023/07/14 00:15:22;;;;;;;5.23;4.83;;;16.40;99.90;;;;;;4877194;29;20425;-85
2023/07/14 00:17:52;;;;;;;5.50;5.10;;;16.30;99.90;;;;;;4875246;29;20465;-85
2023/07/14 00:20:29;;;;;;;5.07;4.87;;;16.30;99.90;;;;;;4857970;29;20192;-86
2023/07/14 00:22:57;;;;;;;5.03;4.93;;;16.20;99.90;;;;;;4877901;29;20822;-86
2023/07/14 00:25:25;;;;;;;6.13;5.83;;;16.20;99.90;;;;;;4878064;29;20445;-86
2023/07/14 00:27:53;;;;;;;7.07;6.57;;;16.20;99.90;;;;;;4876463;29;20459;-86
2023/07/14 00:30:23;;;;;;;4.70;4.50;;;16.30;99.90;;;;;;4882124;29;20437;-85
2023/07/14 00:32:51;;;;;;;6.30;6.00;;;16.20;99.90;;;;;;4875271;29;20469;-86
2023/07/14 00:35:20;;;;;;;5.80;5.40;;;16.20;99.90;;;;;;4878713;29;21159;-86
2023/07/14 00:37:47;;;;;;;5.10;5.00;;;16.30;99.90;;;;;;4858543;29;20456;-86
2023/07/14 00:40:17;;;;;;;5.57;5.30;;;16.40;99.90;;;;;;4877098;29;20862;-86
2023/07/14 00:42:43;;;;;;;5.97;5.67;;;16.30;99.90;;;;;;4859656;29;20433;-84
2023/07/14 00:45:18;;;;;;;5.40;5.17;;;16.30;99.90;;;;;;4873672;29;20445;-85
2023/07/14 00:47:46;;;;;;;5.20;4.97;;;16.20;99.90;;;;;;4866135;29;20669;-83
2023/07/14 00:50:22;;;;;;;5.17;4.97;;;16.30;99.90;;;;;;4873631;29;20425;-84
2023/07/14 00:52:48;;;;;;;4.47;4.37;;;16.30;99.90;;;;;;4854645;29;20484;-84
2023/07/14 00:55:24;;;;;;;5.90;5.50;;;16.30;99.90;;;;;;4854448;29;20465;-84
2023/07/14 00:57:54;;;;;;;5.10;4.90;;;16.40;99.90;;;;;;4871863;29;20220;-84
2023/07/14 01:00:26;;;;;;;5.00;4.90;;;16.40;99.90;;;;;;4877736;29;20430;-84
2023/07/14 01:02:52;;;;;;;6.00;5.80;;;16.30;99.90;;;;;;4874120;29;20465;-85
2023/07/14 01:05:19;;;;;;;5.00;4.90;;;16.30;99.90;;;;;;4877384;29;20787;-85
2023/07/14 01:07:46;;;;;;;6.70;6.10;;;16.20;99.90;;;;;;4856104;29;20636;-85
2023/07/14 01:10:16;;;;;;;4.77;4.67;;;16.20;99.90;;;;;;4879077;29;20433;-84
2023/07/14 01:12:46;;;;;;;5.27;5.17;;;16.30;99.90;;;;;;4869506;29;20557;-85
2023/07/14 01:15:12;;;;;;;5.47;5.27;;;16.40;99.90;;;;;;4877156;29;20486;-85
2023/07/14 01:17:38;;;;;;;5.93;5.67;;;16.40;99.90;;;;;;4878169;29;20448;-85
2023/07/14 01:20:09;;;;;;;5.07;4.97;;;16.30;99.90;;;;;;4877932;29;20248;-85
2023/07/14 01:23:02;;;;;;;4.60;4.50;;;16.30;99.90;;;;;;4873052;29;20930;-85
2023/07/14 01:25:36;;;;;;;4.80;4.60;;;16.20;99.90;;;;;;4880393;29;20427;-85
2023/07/14 01:28:04;;;;;;;6.37;6.00;;;16.10;99.90;;;;;;4875856;29;20853;-83
2023/07/14 01:30:30;;;;;;;5.80;5.50;;;16.20;99.90;;;;;;4881783;29;21229;-84
2023/07/14 01:32:56;;;;;;;5.77;5.37;;;16.10;99.90;;;;;;4878788;29;20468;-85
2023/07/14 01:35:28;;;;;;;5.90;5.60;;;16.20;99.90;;;;;;4864533;29;20960;-85
2023/07/14 01:37:54;;;;;;;5.63;5.33;;;16.20;99.90;;;;;;4881841;29;20272;-85
2023/07/14 01:40:21;;;;;;;5.90;5.33;;;16.10;99.90;;;;;;4881606;29;20441;-85
2023/07/14 01:42:58;;;;;;;5.80;5.60;;;16.20;99.90;;;;;;4874645;29;20456;-85
2023/07/14 01:45:28;;;;;;;5.33;5.20;;;16.20;99.90;;;;;;4882825;29;20426;-85
2023/07/14 01:47:57;;;;;;;5.43;5.23;;;16.10;99.90;;;;;;4871444;29;20457;-85
2023/07/14 01:50:31;;;;;;;6.10;5.80;;;16.00;99.90;;;;;;4884566;29;20436;-84
2023/07/14 01:53:02;;;;;;;6.67;6.30;;;16.00;99.90;;;;;;4873441;29;20445;-84
2023/07/14 01:55:34;;;;;;;5.93;5.73;;;16.00;99.90;;;;;;4874085;29;20972;-84
2023/07/14 01:58:04;;;;;;;6.60;6.13;;;16.00;99.90;;;;;;4882906;29;20614;-84
2023/07/14 02:00:30;;;;;;;6.47;5.87;;;15.90;99.90;;;;;;4858600;29;20998;-84
2023/07/14 02:02:59;;;;;;;5.23;5.13;;;15.90;99.90;;;;;;4878682;29;20452;-84
2023/07/14 02:05:30;;;;;;;5.70;5.50;;;16.00;99.90;;;;;;4856680;29;20477;-84
2023/07/14 02:07:58;;;;;;;5.37;5.10;;;16.00;99.90;;;;;;4876288;29;20522;-85
2023/07/14 02:10:24;;;;;;;5.67;5.47;;;16.00;99.90;;;;;;4877185;29;21518;-84
2023/07/14 02:12:49;;;;;;;5.33;5.13;;;15.90;99.90;;;;;;4877027;29;20829;-85
2023/07/14 02:15:22;;;;;;;6.67;6.10;;;15.90;99.90;;;;;;4879451;29;20433;-84
2023/07/14 02:17:49;;;;;;;5.57;5.17;;;15.90;99.90;;;;;;4879701;29;20225;-85
2023/07/14 02:20:32;;;;;;;6.13;5.53;;;15.90;99.90;;;;;;4882274;29;20537;-84
2023/07/14 02:23:01;;;;;;;5.60;5.30;;;15.90;99.90;;;;;;4874990;29;20441;-84
2023/07/14 02:25:31;;;;;;;6.10;5.90;;;16.00;99.90;;;;;;4883279;29;20441;-84
2023/07/14 02:27:57;;;;;;;5.67;5.30;;;16.10;99.90;;;;;;4892324;29;20491;-85
2023/07/14 02:30:26;;;;;;;5.27;5.00;;;16.20;99.90;;;;;;4887510;29;20442;-84
2023/07/14 02:32:56;;;;;;;5.23;4.97;;;16.20;99.90;;;;;;4890682;29;20342;-84
2023/07/14 02:35:44;;;;;;;4.73;4.50;;;16.40;99.90;;;;;;4896706;29;20441;-82
2023/07/14 02:38:12;;;;;;;4.03;3.80;;;16.50;99.90;;;;;;4901426;29;20473;-84
2023/07/14 02:40:43;;;;;;;4.57;4.10;;;16.60;99.90;;;;;;4904025;29;20669;-83
2023/07/14 02:43:15;;;;;;;3.50;3.40;;;16.70;99.90;;;;;;4867871;29;20453;-84
2023/07/14 02:46:01;;;;;;;3.60;3.50;;;16.70;99.90;;;;;;4883841;29;20441;-85
2023/07/14 02:48:34;;;;;;;4.93;3.90;;;16.90;99.90;;;;;;4873726;29;20459;-84
2023/07/14 02:50:59;;;;;;;4.53;3.33;;;17.00;99.90;;;;;;4876731;29;20438;-85
2023/07/14 02:53:25;;;;;;;4.23;3.90;;;17.00;99.90;;;;;;4860143;29;21213;-82
2023/07/14 02:55:51;;;;;;;4.10;3.90;;;17.00;99.90;;;;;;4872912;29;20205;-84
2023/07/14 02:58:17;;;;;;;3.90;3.80;;;17.00;99.90;;;;;;4855407;29;20213;-86
2023/07/14 03:00:43;;;;;;;4.97;4.00;;;17.00;99.90;;;;;;4851926;29;20190;-84
2023/07/14 03:03:09;;;;;;;3.80;3.60;;;17.10;99.90;;;;;;4854889;29;20542;-85
2023/07/14 03:05:35;;;;;;;4.10;3.90;;;17.00;99.90;;;;;;4851599;29;20503;-85
2023/07/14 03:08:01;;;;;;;3.90;3.70;;;17.10;99.90;;;;;;4852771;29;20437;-86
2023/07/14 03:10:27;;;;;;;3.63;3.53;;;17.10;99.90;;;;;;4852647;29;20425;-85
2023/07/14 03:12:53;;;;;;;4.77;4.50;;;17.10;99.90;;;;;;4852248;29;20439;-85
2023/07/14 03:15:20;;;;;;;3.93;3.73;;;17.00;99.90;;;;;;4852971;29;20933;-85
2023/07/14 03:17:46;;;;;;;4.10;3.90;;;17.00;99.90;;;;;;4850968;29;20530;-85
2023/07/14 03:20:14;;;;;;;4.07;3.87;;;17.00;99.90;;;;;;4854599;29;20518;-85
2023/07/14 03:22:39;;;;;;;8.57;4.80;;;17.00;99.90;;;;;;4852726;29;20470;-84
2023/07/14 03:25:06;;;;;;;3.40;3.30;;;17.00;99.90;;;;;;4855238;29;20462;-85
2023/07/14 03:27:32;;;;;;;6.23;4.47;;;17.00;99.90;;;;;;4853901;29;20206;-84
2023/07/14 03:29:57;;;;;;;4.50;4.30;;;17.00;99.90;;;;;;4850853;29;20450;-84
2023/07/14 03:32:23;;;;;;;4.30;4.03;;;16.90;99.90;;;;;;4853882;29;20221;-84
2023/07/14 03:34:48;;;;;;;4.43;4.13;;;17.00;99.90;;;;;;4850352;29;20209;-84
2023/07/14 03:37:14;;;;;;;4.03;3.93;;;16.90;99.90;;;;;;4853874;29;20194;-84
2023/07/14 03:46:23;;;;;;;4.80;4.50;;;16.90;99.90;;;;;;4845949;29;20541;-85
2023/07/14 03:48:49;;;;;;;5.93;4.10;;;16.80;99.90;;;;;;4847320;29;20541;-84
2023/07/14 03:51:14;;;;;;;7.47;4.67;;;16.90;99.90;;;;;;4852140;29;20586;-85
2023/07/14 03:53:40;;;;;;;4.20;3.80;;;16.90;99.90;;;;;;4850101;29;20672;-85
2023/07/14 03:56:05;;;;;;;4.30;4.00;;;17.00;99.90;;;;;;4851550;29;20190;-85
2023/07/14 03:58:31;;;;;;;4.93;4.47;;;17.00;99.90;;;;;;4860249;29;20855;-85
2023/07/14 04:01:00;;;;;;;5.73;4.60;;;17.00;99.90;;;;;;4878468;29;20260;-84
2023/07/14 04:03:25;;;;;;;4.73;4.30;;;17.10;99.90;;;;;;4879328;29;20200;-85
2023/07/14 04:05:51;;;;;;;5.77;4.20;;;17.20;99.90;;;;;;4878909;29;20530;-85
2023/07/14 04:08:17;;;;;;;4.33;4.17;;;17.20;99.90;;;;;;4857084;29;20249;-84
2023/07/14 04:10:42;;;;;;;4.37;4.10;;;17.20;99.90;;;;;;4882741;29;20185;-83
2023/07/14 04:13:08;;;;;;;4.20;4.10;;;17.20;99.90;;;;;;4856009;29;20280;-84
2023/07/14 04:15:33;;;;;;;4.00;3.80;;;17.30;99.90;;;;;;4880645;29;20204;-84
2023/07/14 04:17:59;;;;;;;4.50;4.17;;;17.40;99.90;;;;;;4858176;29;20192;-84
2023/07/14 04:20:24;;;;;;;4.80;4.60;;;17.50;99.90;;;;;;4877277;29;20185;-84
2023/07/14 04:22:50;;;;;;;5.47;4.30;;;17.50;99.90;;;;;;4874469;29;20200;-85
2023/07/14 04:25:16;;;;;;;5.50;4.30;;;17.60;99.90;;;;;;4882254;29;20652;-84
2023/07/14 04:27:41;;;;;;;4.03;3.80;;;17.70;99.90;;;;;;4857886;29;20275;-84
2023/07/14 04:30:08;;;;;;;10.43;4.80;;;17.90;99.90;;;;;;4878163;29;20421;-85
2023/07/14 04:32:34;;;;;;;6.40;4.80;;;18.10;99.90;;;;;;4857050;29;20255;-85
2023/07/14 04:34:59;;;;;;;4.70;4.40;;;18.10;99.90;;;;;;4883643;29;20438;-84
2023/07/14 04:37:25;;;;;;;4.10;3.80;;;18.00;99.90;;;;;;4856263;29;20460;-84
2023/07/14 04:39:51;;;;;;;4.77;4.33;;;18.10;99.90;;;;;;4873092;29;20221;-85
2023/07/14 04:42:16;;;;;;;4.30;4.00;;;18.00;99.90;;;;;;4850104;29;20181;-85
2023/07/14 04:44:42;;;;;;;4.27;3.97;;;18.00;99.90;;;;;;4865963;29;20200;-84
2023/07/14 04:47:08;;;;;;;6.83;4.50;;;18.00;99.90;;;;;;4873709;29;20220;-84
2023/07/14 04:49:34;;;;;;;5.07;4.77;;;18.10;99.90;;;;;;4859489;29;20201;-85
2023/07/14 04:52:00;;;;;;;4.70;4.50;;;18.20;99.90;;;;;;4864269;29;20470;-84
2023/07/14 04:54:26;;;;;;;4.93;4.47;;;18.30;99.90;;;;;;4850584;29;20208;-85
2023/07/14 04:56:52;;;;;;;4.17;4.07;;;18.30;99.90;;;;;;4870962;29;21595;-88
2023/07/14 04:59:18;;;;;;;4.20;4.03;;;18.40;99.90;;;;;;4860492;29;20776;-84
2023/07/14 05:01:44;;;;;;;3.63;3.43;;;18.50;99.90;;;;;;4851788;29;20440;-83
2023/07/14 05:04:10;;;;;;;4.10;3.90;;;18.60;99.90;;;;;;4844207;29;20678;-84
2023/07/14 05:06:35;;;;;;;4.87;4.40;;;18.60;99.90;;;;;;4849570;29;20211;-83
2023/07/14 05:09:01;;;;;;;4.17;3.77;;;18.60;99.90;;;;;;4845761;29;20214;-85
2023/07/14 05:11:30;;;;;;;7.77;4.73;;;18.70;99.90;;;;;;4846171;29;20198;-84
2023/07/14 05:13:56;;;;;;;7.10;4.70;;;18.80;99.90;;;;;;4851178;29;20898;-84
2023/07/14 05:16:21;;;;;;;5.07;4.67;;;18.90;99.90;;;;;;4851723;29;20500;-84
2023/07/14 05:18:48;;;;;;;4.73;4.50;;;18.80;99.90;;;;;;4850019;29;20556;-82
2023/07/14 05:21:17;;;;;;;4.30;4.00;;;18.90;99.90;;;;;;4859600;29;20294;-91
2023/07/14 05:23:42;;;;;;;4.50;4.30;;;19.00;99.90;;;;;;4860276;29;20488;-85
2023/07/14 05:26:08;;;;;;;4.83;4.37;;;19.10;99.90;;;;;;4865802;29;20502;-83
2023/07/14 05:28:37;;;;;;;4.37;4.00;;;19.10;99.90;;;;;;4854625;29;20238;-85
2023/07/14 05:31:07;;;;;;;4.20;4.00;;;19.20;99.90;;;;;;4860292;29;20186;-85
2023/07/14 05:33:32;;;;;;;4.80;4.23;;;19.20;99.90;;;;;;4871372;29;20449;-86
2023/07/14 05:35:58;;;;;;;3.73;3.43;;;19.10;99.90;;;;;;4863124;29;20507;-88
2023/07/14 05:38:24;;;;;;;3.80;3.70;;;19.30;99.90;;;;;;4859785;29;20210;-84
2023/07/14 05:40:52;;;;;;;5.40;4.43;;;19.20;99.90;;;;;;4865468;29;20276;-85
2023/07/14 05:43:17;;;;;;;5.10;4.47;;;19.30;99.90;;;;;;4856405;29;20442;-86
2023/07/14 05:45:47;;;;;;;7.20;5.67;;;19.30;99.90;;;;;;4853504;29;20530;-86
2023/07/14 05:48:14;;;;;;;4.63;4.40;;;19.30;99.90;;;;;;4849059;29;20194;-84
2023/07/14 05:50:40;;;;;;;4.80;4.17;;;19.40;99.90;;;;;;4863040;29;20844;-85
2023/07/14 05:53:06;;;;;;;6.60;4.73;;;19.70;99.90;;;;;;4852630;29;20575;-85
2023/07/14 05:55:31;;;;;;;4.47;4.10;;;19.80;99.90;;;;;;4864407;29;20178;-87
2023/07/14 05:57:57;;;;;;;3.90;3.57;;;19.90;99.90;;;;;;4850696;29;20552;-86
2023/07/14 06:00:23;;;;;;;4.50;4.10;;;19.90;99.90;;;;;;4858960;29;20235;-86
2023/07/14 06:02:50;;;;;;;4.10;3.80;;;20.00;99.90;;;;;;4856843;29;20272;-86
2023/07/14 06:05:17;;;;;;;3.57;3.30;;;20.30;99.90;;;;;;4877692;29;20429;-85
2023/07/14 06:07:43;;;;;;;4.13;3.90;;;20.60;99.90;;;;;;4860045;29;20508;-85
2023/07/14 06:10:09;;;;;;;3.63;3.40;;;20.90;99.90;;;;;;4863339;29;20419;-85
2023/07/14 06:12:35;;;;;;;4.00;3.80;;;21.40;99.90;;;;;;4854637;29;21228;-86
2023/07/14 06:15:01;;;;;;;4.00;3.80;;;21.90;99.90;;;;;;4856524;29;20525;-88
2023/07/14 06:17:27;;;;;;;3.80;3.10;;;22.30;99.90;;;;;;4849450;29;20207;-83
2023/07/14 06:33:27;;;;;;;4.90;4.00;;;24.50;99.20;;;;;;4855093;29;20405;-85
2023/07/14 06:52:44;;;;;;;3.40;3.10;;;25.80;90.00;;;;;;4871004;29;20405;-84
2023/07/14 06:58:32;;;;;;;4.50;4.10;;;26.20;87.70;;;;;;4870846;29;20832;-85
2023/07/14 07:05:03;;;;;;;3.93;3.63;;;26.50;88.90;;;;;;4875892;29;20684;-85
2023/07/14 07:14:13;;;;;;;3.87;3.60;;;27.10;79.10;;;;;;4884613;29;20436;-88
2023/07/14 07:16:38;;;;;;;3.57;3.37;;;27.20;79.20;;;;;;4870763;29;20449;-81
2023/07/14 07:19:04;;;;;;;5.03;3.97;;;27.20;79.20;;;;;;4877179;29;20198;-87
2023/07/14 07:21:36;;;;;;;3.50;3.40;;;27.30;78.20;;;;;;4862364;29;20549;-93
2023/07/14 07:24:06;;;;;;;3.80;3.60;;;27.20;76.00;;;;;;4876645;29;20214;-88
2023/07/14 07:26:31;;;;;;;4.20;3.97;;;27.20;76.00;;;;;;4860844;29;20465;-85
2023/07/14 07:28:57;;;;;;;3.07;2.97;;;27.30;76.60;;;;;;4881069;29;20457;-86
2023/07/14 07:31:23;;;;;;;4.10;3.80;;;27.10;75.60;;;;;;4887368;29;20244;-84
2023/07/14 07:33:48;;;;;;;4.10;3.90;;;26.60;76.90;;;;;;4886549;29;20196;-84
2023/07/14 07:36:15;;;;;;;3.90;3.80;;;26.50;78.90;;;;;;4894734;29;20173;-84
2023/07/14 07:38:51;;;;;;;4.13;3.07;;;26.40;80.70;;;;;;4890741;29;20207;-85
2023/07/14 07:41:19;;;;;;;3.47;3.27;;;26.80;78.50;;;;;;4884505;29;20550;-86
2023/07/14 07:43:45;;;;;;;3.33;3.20;;;27.40;75.00;;;;;;4861163;29;20445;-89
2023/07/14 07:46:11;;;;;;;3.20;3.10;;;27.40;75.00;;;;;;4888496;29;20995;-88
2023/07/14 07:48:37;;;;;;;3.40;3.20;;;27.20;74.60;;;;;;4878909;29;20613;-85
2023/07/14 07:51:05;;;;;;;3.63;3.53;;;27.30;74.40;;;;;;4884298;29;20436;-84
2023/07/14 07:53:31;;;;;;;3.87;3.67;;;27.50;73.50;;;;;;4879057;29;20947;-86
2023/07/14 08:14:55;;;;;;;2.40;2.20;;;30.30;58.10;;;;;;4872858;29;20565;-86
2023/07/14 08:21:50;;;;;;;2.37;2.30;;;30.10;56.70;;;;;;4880016;29;20437;-86
2023/07/14 08:24:16;;;;;;;2.80;2.60;;;30.10;56.20;;;;;;4888803;29;20429;-88
2023/07/14 08:26:41;;;;;;;2.87;2.67;;;30.20;56.40;;;;;;4899599;29;20532;-84
2023/07/14 08:29:08;;;;;;;2.67;2.67;;;30.50;56.40;;;;;;4869961;29;20193;-85
2023/07/14 08:31:34;;;;;;;1.80;1.80;;;31.20;55.50;;;;;;4880681;29;20209;-90
2023/07/14 08:34:04;;;;;;;2.43;2.33;;;31.30;54.60;;;;;;4879125;29;20512;-88
2023/07/14 08:36:29;;;;;;;3.03;2.20;;;31.10;54.50;;;;;;4862114;29;20462;-86
2023/07/14 08:38:55;;;;;;;4.10;2.20;;;31.30;54.70;;;;;;4861333;29;20508;-87
2023/07/14 08:41:46;;;;;;;2.30;2.30;;;31.70;53.70;;;;;;4879939;29;20189;-89
2023/07/14 08:45:00;;;;;;;1.90;1.90;;;31.10;53.80;;;;;;4859257;29;20433;-86
2023/07/14 08:47:44;;;;;;;2.07;2.07;;;30.80;53.40;;;;;;4875114;29;20573;-86
2023/07/14 08:50:29;;;;;;;2.20;2.10;;;30.90;53.90;;;;;;4888981;29;21200;-86
2023/07/14 08:53:03;;;;;;;2.40;2.30;;;31.50;52.60;;;;;;4888799;29;20448;-89
2023/07/14 08:55:32;;;;;;;1.97;1.97;;;31.80;52.40;;;;;;4866578;29;20447;-86
2023/07/14 08:58:08;;;;;;;1.77;1.77;;;31.30;52.50;;;;;;4879889;29;20433;-88
2023/07/14 09:01:02;;;;;;;2.10;2.00;;;31.00;52.90;;;;;;4860983;29;20432;-87
2023/07/14 09:14:03;;;;;;;2.50;2.40;;;33.30;49.80;;;;;;4860805;29;20575;-89
2023/07/14 09:16:34;;;;;;;2.50;2.40;;;33.00;50.10;;;;;;4853610;29;20482;-89
2023/07/14 09:19:17;;;;;;;2.83;2.73;;;33.20;50.10;;;;;;4865762;29;20439;-88
2023/07/14 09:21:55;;;;;;;2.80;2.60;;;33.70;49.70;;;;;;4853134;29;20443;-85
2023/07/14 09:48:13;;;;;;;2.67;2.60;;;29.60;50.80;;;;;;4853782;29;20547;-87
2023/07/14 09:50:48;;;;;;;2.53;2.53;;;30.10;50.80;;;;;;4858464;29;20812;-89
2023/07/14 09:53:14;;;;;;;4.37;3.00;;;30.50;50.70;;;;;;4861011;29;20720;-88
2023/07/14 09:56:06;;;;;;;2.57;2.47;;;31.10;50.40;;;;;;4859963;29;20504;-87
2023/07/14 09:58:33;;;;;;;2.73;2.63;;;32.20;50.00;;;;;;4848668;29;20186;-86
2023/07/14 10:01:05;;;;;;;2.90;2.83;;;33.20;49.10;;;;;;4857572;29;20434;-87
2023/07/14 10:03:42;;;;;;;2.63;2.50;;;33.70;48.90;;;;;;4866049;29;20465;-89
2023/07/14 10:06:16;;;;;;;2.83;2.80;;;34.30;48.40;;;;;;4879238;29;20475;-87
2023/07/14 10:08:54;;;;;;;2.93;2.30;;;34.50;46.90;;;;;;4883184;29;20431;-83
2023/07/14 10:11:51;;;;;;;3.10;2.90;;;34.10;47.10;;;;;;4876344;29;20467;-88
2023/07/14 10:14:25;;;;;;;3.60;3.40;;;33.40;47.80;;;;;;4873765;29;21262;-84
2023/07/14 10:16:51;;;;;;;4.33;3.10;;;32.50;47.40;;;;;;4885113;29;20418;-84
2023/07/14 10:19:18;;;;;;;3.33;3.17;;;31.90;48.10;;;;;;4859064;29;20446;-85
2023/07/14 10:21:59;;;;;;;2.97;2.97;;;31.30;48.80;;;;;;4863975;29;20429;-84
2023/07/14 10:24:27;;;;;;;3.50;3.40;;;30.70;48.70;;;;;;4875394;29;20445;-81
2023/07/14 10:26:58;;;;;;;3.53;3.23;;;30.40;49.20;;;;;;4884703;29;20502;-84
2023/07/14 10:29:26;;;;;;;3.13;3.03;;;30.20;49.90;;;;;;4888871;29;20448;-83
2023/07/14 10:32:06;;;;;;;4.20;3.90;;;30.00;50.10;;;;;;4873190;29;20425;-82
2023/07/14 10:34:57;;;;;;;4.00;3.77;;;30.10;50.40;;;;;;4880351;29;20957;-83
2023/07/14 10:37:27;;;;;;;3.50;3.30;;;29.90;50.20;;;;;;4884261;29;20511;-85
2023/07/14 10:40:30;;;;;;;3.07;3.00;;;30.30;51.00;;;;;;4877813;29;20464;-84
2023/07/14 10:43:08;;;;;;;3.10;2.90;;;30.70;49.90;;;;;;4832952;29;20456;-87
2023/07/14 10:45:45;;;;;;;3.27;3.00;;;30.80;50.20;;;;;;4878487;29;20449;-84
2023/07/14 10:48:24;;;;;;;2.80;2.80;;;30.60;49.90;;;;;;4883946;29;20827;-85
2023/07/14 10:51:00;;;;;;;3.07;2.97;;;30.70;49.60;;;;;;4878126;29;20919;-83
2023/07/14 10:53:37;;;;;;;3.10;3.00;;;31.30;49.60;;;;;;4879304;29;20424;-83
2023/07/14 10:56:14;;;;;;;3.43;3.33;;;32.00;48.20;;;;;;4886192;29;20993;-85
2023/07/14 10:58:48;;;;;;;3.63;3.53;;;32.30;47.40;;;;;;4880340;29;20516;-83
2023/07/14 11:01:33;;;;;;;2.87;2.87;;;32.30;47.60;;;;;;4879377;29;20425;-85
2023/07/14 11:04:32;;;;;;;4.53;4.13;;;32.90;47.40;;;;;;4877146;29;20473;-83
2023/07/14 12:04:30;;;;;;;2.70;2.70;;;33.30;46.30;;;;;;4879649;29;20505;-88
2023/07/14 12:07:16;;;;;;;3.77;3.47;;;33.50;44.90;;;;;;4886272;29;20457;-85
2023/07/14 12:10:08;;;;;;;3.03;3.03;;;33.90;45.70;;;;;;4894460;29;20429;-84
2023/07/14 12:12:33;;;;;;;3.07;2.90;;;34.20;45.70;;;;;;4882520;29;20468;-84
2023/07/14 12:14:59;;;;;;;2.80;2.73;;;33.70;44.50;;;;;;4886750;29;20839;-87
2023/07/14 12:17:36;;;;;;;3.13;3.10;;;33.80;45.00;;;;;;4885376;29;20196;-86
2023/07/14 12:20:11;;;;;;;3.87;3.57;;;33.50;45.40;;;;;;4884763;29;20257;-85
2023/07/14 12:22:42;;;;;;;4.30;4.00;;;33.40;45.00;;;;;;4884451;29;20488;-83
2023/07/14 12:25:19;;;;;;;3.20;3.10;;;33.30;45.50;;;;;;4880266;29;20525;-84
2023/07/14 12:27:51;;;;;;;3.13;3.00;;;33.50;45.30;;;;;;4869007;29;20509;-86
2023/07/14 12:30:22;;;;;;;3.77;3.67;;;33.40;45.20;;;;;;4872760;29;20448;-86
2023/07/14 12:32:50;;;;;;;3.10;3.00;;;32.90;45.30;;;;;;4880792;29;20975;-83
2023/07/14 12:35:18;;;;;;;3.13;3.03;;;33.40;45.40;;;;;;4864324;29;20429;-85
2023/07/14 12:37:44;;;;;;;2.90;2.70;;;33.60;45.60;;;;;;4862317;29;20449;-83
2023/07/14 12:40:24;;;;;;;2.87;2.87;;;33.70;45.40;;;;;;4878891;29;20445;-85
2023/07/14 12:42:52;;;;;;;3.13;3.03;;;33.70;43.80;;;;;;4858944;29;20875;-82
2023/07/14 12:45:20;;;;;;;2.80;2.60;;;33.30;43.70;;;;;;4861300;29;20449;-83
2023/07/14 12:47:49;;;;;;;2.73;2.43;;;33.20;44.10;;;;;;4884239;29;21090;-83
2023/07/14 12:50:21;;;;;;;2.90;2.80;;;32.60;44.10;;;;;;4876992;29;20465;-83
2023/07/14 12:52:48;;;;;;;3.20;3.00;;;32.00;44.90;;;;;;4883231;29;20454;-82
2023/07/14 12:55:19;;;;;;;2.80;2.77;;;31.50;45.30;;;;;;4873943;29;20493;-82
2023/07/14 12:57:47;;;;;;;3.20;3.00;;;31.50;45.60;;;;;;4873038;29;20441;-83
2023/07/14 13:00:45;;;;;;;3.07;2.90;;;31.60;45.30;;;;;;4878503;29;20436;-83
2023/07/14 13:03:11;;;;;;;3.43;3.03;;;30.40;45.90;;;;;;4858695;29;20571;-82
2023/07/14 13:05:38;;;;;;;3.43;3.33;;;30.70;46.10;;;;;;4880398;29;20516;-82
2023/07/14 13:08:07;;;;;;;3.30;2.97;;;30.60;46.10;;;;;;4876514;29;20235;-82
2023/07/14 13:10:40;;;;;;;3.70;3.47;;;30.50;46.60;;;;;;4873212;29;20457;-82
2023/07/14 13:13:12;;;;;;;2.40;2.40;;;30.30;46.60;;;;;;4880661;29;20473;-80
2023/07/14 13:15:37;;;;;;;3.30;3.20;;;30.40;47.10;;;;;;4875211;29;20457;-83
2023/07/14 13:18:18;;;;;;;2.70;2.60;;;30.70;46.60;;;;;;4854287;29;20450;-82
2023/07/14 13:20:44;;;;;;;3.47;3.10;;;30.80;46.60;;;;;;4880949;29;20203;-81
2023/07/14 13:23:10;;;;;;;7.00;4.43;;;30.50;46.90;;;;;;4883355;29;20799;-84
2023/07/14 13:26:00;;;;;;;2.97;2.87;;;30.30;46.50;;;;;;4874338;29;20715;-82
2023/07/14 13:35:28;;;;;;;2.90;2.80;;;31.50;45.90;;;;;;4876416;29;20465;-81
2023/07/14 13:48:00;;;;;;;2.67;2.67;;;34.10;44.50;;;;;;4876250;29;20535;-83
2023/07/14 13:57:16;;;;;;;2.77;2.67;;;33.80;43.50;;;;;;4879711;29;20587;-84
2023/07/14 14:06:48;;;;;;;3.20;3.03;;;35.90;42.50;;;;;;4878288;29;20539;-85
2023/07/14 14:48:04;;;;;;;4.73;4.30;;;33.10;42.00;;;;;;4873899;29;20606;-84
2023/07/14 15:29:00;;;;;;;2.70;2.70;;;29.50;43.30;;;;;;4875865;29;20992;-83
2023/07/14 15:39:07;;;;;;;2.30;2.27;;;29.70;42.90;;;;;;4879963;29;20457;-87
2023/07/14 15:44:54;;;;;;;3.30;3.20;;;29.30;43.30;;;;;;4878612;29;20412;-88
2023/07/14 16:04:16;;;;;;;3.07;2.97;;;29.80;45.00;;;;;;4873523;29;20469;-86
2023/07/14 16:23:44;;;;;;;2.83;2.63;;;29.40;45.60;;;;;;4874011;29;20585;-86
2023/07/14 16:26:09;;;;;;;3.37;2.70;;;29.20;45.90;;;;;;4878514;29;20536;-86
2023/07/14 16:28:35;;;;;;;5.30;3.20;;;29.40;45.80;;;;;;4865782;29;20258;-83
2023/07/14 16:31:01;;;;;;;3.20;3.07;;;29.50;45.90;;;;;;4852151;29;20189;-84
2023/07/14 16:33:26;;;;;;;3.20;3.10;;;29.70;46.10;;;;;;4877351;29;20177;-83
2023/07/14 16:35:52;;;;;;;4.63;4.30;;;29.90;46.20;;;;;;4870206;29;20280;-88
2023/07/14 16:38:22;;;;;;;3.60;3.27;;;29.90;46.20;;;;;;4854153;29;20272;-81
2023/07/14 16:40:48;;;;;;;4.83;4.00;;;29.60;46.20;;;;;;4884020;29;20552;-86
2023/07/14 16:43:18;;;;;;;4.70;4.50;;;29.10;46.50;;;;;;4879088;29;20481;-84
2023/07/14 16:45:49;;;;;;;7.63;6.70;;;29.10;46.50;;;;;;4867104;29;20194;-84
2023/07/14 16:48:15;;;;;;;3.60;3.30;;;29.30;46.70;;;;;;4877340;29;20544;-85
2023/07/14 16:50:40;;;;;;;5.10;2.90;;;29.30;46.70;;;;;;4876529;29;20536;-82
2023/07/14 16:53:12;;;;;;;4.20;3.87;;;29.30;46.90;;;;;;4871480;29;20231;-83
2023/07/14 16:55:38;;;;;;;3.73;3.50;;;29.30;46.80;;;;;;4867358;29;20178;-83
2023/07/14 16:58:06;;;;;;;5.53;3.77;;;29.20;46.50;;;;;;4864091;29;20897;-87
2023/07/14 17:00:33;;;;;;;3.03;2.83;;;29.10;46.80;;;;;;4853333;29;20221;-84
2023/07/14 17:03:01;;;;;;;3.37;3.27;;;29.00;46.80;;;;;;4882875;29;20443;-83
2023/07/14 17:05:30;;;;;;;4.63;4.22;;;28.90;46.90;;;;;;4879554;29;20429;-87
2023/07/14 17:07:57;;;;;;;3.43;3.23;;;28.90;46.90;;;;;;4873589;29;20234;-83
2023/07/14 17:10:25;;;;;;;2.70;2.70;;;28.80;47.20;;;;;;4882537;29;20418;-82
2023/07/14 17:12:51;;;;;;;2.80;2.70;;;28.90;47.00;;;;;;4875096;29;20496;-80
2023/07/14 17:15:17;;;;;;;3.33;3.23;;;29.00;46.50;;;;;;4874118;29;20453;-82
2023/07/14 17:17:46;;;;;;;3.23;3.13;;;28.90;47.30;;;;;;4871826;29;20457;-83
2023/07/14 17:20:19;;;;;;;3.50;3.20;;;28.80;47.40;;;;;;4874763;29;20194;-82
2023/07/14 17:22:46;;;;;;;3.33;3.13;;;28.80;48.00;;;;;;4883845;29;21020;-81
2023/07/14 17:25:19;;;;;;;2.60;2.60;;;28.70;47.70;;;;;;4910885;29;20439;-87
2023/07/14 17:27:45;;;;;;;3.47;3.03;;;28.70;47.60;;;;;;4907142;29;20479;-82
2023/07/14 17:30:20;;;;;;;3.03;2.63;;;28.70;47.20;;;;;;4918606;29;20412;-83
2023/07/14 17:32:49;;;;;;;3.37;3.27;;;28.70;47.40;;;;;;4886550;29;20200;-80
2023/07/14 17:35:18;;;;;;;2.70;2.50;;;28.60;47.50;;;;;;4914989;29;20471;-83
2023/07/14 17:37:46;;;;;;;3.47;3.37;;;28.70;47.40;;;;;;4902551;29;20949;-83
2023/07/14 17:40:28;;;;;;;3.40;3.20;;;28.50;47.50;;;;;;4906333;29;20422;-86
2023/07/14 17:42:55;;;;;;;2.80;2.70;;;28.40;47.40;;;;;;4899178;29;20459;-81
2023/07/14 17:45:23;;;;;;;2.63;2.53;;;28.30;47.70;;;;;;4922929;29;20428;-82
2023/07/14 17:47:49;;;;;;;2.70;2.60;;;28.30;48.10;;;;;;4897937;29;20587;-86
2023/07/14 17:50:16;;;;;;;3.60;3.40;;;28.30;48.10;;;;;;4939694;29;20439;-81
2023/07/14 17:52:44;;;;;;;5.60;3.20;;;28.20;48.00;;;;;;4928534;29;20487;-84
2023/07/14 17:55:26;;;;;;;3.13;3.03;;;28.20;48.10;;;;;;4939417;29;20425;-86
2023/07/14 17:57:54;;;;;;;2.97;2.47;;;28.10;48.30;;;;;;4913242;29;20436;-87
2023/07/14 18:00:23;;;;;;;3.23;3.03;;;28.10;48.40;;;;;;4907373;29;20502;-82
2023/07/14 18:02:51;;;;;;;4.40;3.60;;;28.10;48.60;;;;;;4918571;29;20435;-83
2023/07/14 18:05:20;;;;;;;4.23;3.93;;;28.10;48.70;;;;;;4913871;29;20443;-82
2023/07/14 18:07:47;;;;;;;2.73;2.73;;;28.10;49.10;;;;;;4910134;29;20551;-82
2023/07/14 18:10:14;;;;;;;3.27;3.10;;;28.20;48.60;;;;;;4926033;29;20472;-83
2023/07/14 18:12:40;;;;;;;2.67;2.63;;;28.20;48.80;;;;;;4926119;29;20821;-83
2023/07/14 18:15:27;;;;;;;2.30;2.20;;;28.20;48.70;;;;;;4927791;29;20447;-83
2023/07/14 18:17:55;;;;;;;2.37;2.17;;;28.20;48.60;;;;;;4921629;29;20973;-83
2023/07/14 18:24:33;;;;;;;4.67;3.13;;;28.10;48.60;;;;;;4887254;29;20480;-81